createdAt,value
2018-01-04T00:01:46.381Z,5.93
2018-01-04T00:04:14.710Z,6.08
2018-01-04T00:06:43.022Z,6.07
2018-01-04T00:09:11.392Z,5.98
2018-01-04T00:11:39.697Z,6.28
2018-01-04T00:14:08.100Z,6.36
2018-01-04T00:16:36.439Z,6.01
2018-01-04T00:19:04.790Z,6.09
2018-01-04T00:21:33.110Z,6.11
2018-01-04T00:24:01.444Z,5.99
2018-01-04T00:26:30.886Z,5.83
2018-01-04T00:29:00.054Z,5.80
2018-01-04T00:31:28.392Z,5.86
2018-01-04T00:33:57.487Z,5.98
2018-01-04T00:36:25.812Z,6.07
2018-01-04T00:38:54.144Z,5.93
2018-01-04T00:41:23.245Z,6.04
2018-01-04T00:43:58.394Z,5.85
2018-01-04T00:46:27.559Z,5.94
2018-01-04T00:48:56.064Z,6.03
2018-01-04T00:51:24.416Z,6.03
2018-01-04T00:53:52.755Z,5.96
2018-01-04T00:56:21.090Z,5.95
2018-01-04T00:58:50.257Z,5.85
2018-01-04T01:01:18.594Z,5.97
2018-01-04T01:03:46.937Z,5.99
2018-01-04T01:06:16.043Z,6.06
2018-01-04T01:08:44.351Z,6.10
2018-01-04T01:11:14.156Z,6.16
2018-01-04T01:13:42.478Z,6.21
2018-01-04T01:16:11.767Z,6.39
2018-01-04T01:18:43.311Z,6.33
2018-01-04T01:21:12.644Z,6.27
2018-01-04T01:23:40.964Z,6.25
2018-01-04T01:26:09.286Z,6.24
2018-01-04T01:28:37.606Z,6.13
2018-01-04T01:31:05.975Z,6.16
2018-01-04T01:33:34.313Z,6.15
2018-01-04T01:36:02.645Z,6.07
2018-01-04T01:38:30.970Z,6.04
2018-01-04T01:40:59.338Z,5.90
2018-01-04T01:43:27.681Z,6.08
2018-01-04T01:45:55.998Z,6.12
2018-01-04T01:48:24.691Z,6.33
2018-01-04T01:50:53.021Z,6.35
2018-01-04T01:53:21.327Z,6.37
2018-01-04T01:55:49.649Z,6.44
2018-01-04T01:58:17.966Z,6.43
2018-01-04T02:00:46.287Z,6.34
2018-01-04T02:03:14.604Z,6.32
2018-01-04T02:05:42.928Z,6.33
2018-01-04T02:08:11.259Z,6.35
2018-01-04T02:10:39.587Z,6.28
2018-01-04T02:13:07.923Z,6.33
2018-01-04T02:15:36.252Z,6.33
2018-01-04T02:18:23.062Z,6.35
2018-01-04T02:21:09.436Z,6.26
2018-01-04T02:23:51.518Z,6.21
2018-01-04T02:26:37.515Z,6.42
2018-01-04T02:29:23.468Z,6.36
2018-01-04T02:32:09.391Z,6.45
2018-01-04T02:34:56.381Z,6.36
2018-01-04T02:37:42.424Z,6.25
2018-01-04T02:40:28.214Z,6.31
2018-01-04T02:43:14.162Z,6.28
2018-01-04T02:46:00.898Z,6.46
2018-01-04T02:48:29.866Z,6.56
2018-01-04T02:50:58.177Z,6.33
2018-01-04T02:53:27.753Z,6.48
2018-01-04T02:55:56.098Z,6.45
2018-01-04T02:58:24.441Z,6.32
2018-01-04T03:00:52.766Z,6.34
2018-01-04T03:03:21.089Z,6.42
2018-01-04T03:05:49.414Z,6.46
2018-01-04T03:08:17.744Z,6.52
2018-01-04T03:10:46.080Z,6.59
2018-01-04T03:13:14.421Z,6.56
2018-01-04T03:15:42.746Z,6.58
2018-01-04T03:18:11.078Z,6.47
2018-01-04T03:20:39.398Z,6.32
2018-01-04T03:23:13.241Z,6.54
2018-01-04T03:25:46.950Z,6.59
2018-01-04T03:28:21.105Z,6.64
2018-01-04T03:30:54.835Z,6.58
2018-01-04T03:33:28.661Z,6.49
2018-01-04T03:36:02.422Z,6.43
2018-01-04T03:38:36.130Z,6.49
2018-01-04T03:41:09.897Z,6.50
2018-01-04T03:43:43.684Z,6.54
2018-01-04T03:46:17.563Z,6.64
2018-01-04T03:48:51.424Z,6.47
2018-01-04T03:51:25.135Z,6.52
2018-01-04T03:53:58.983Z,6.43
2018-01-04T03:56:32.846Z,6.45
2018-01-04T03:59:07.375Z,6.51
2018-01-04T04:01:41.132Z,6.53
2018-01-04T04:07:19.745Z,6.40
2018-01-04T04:09:48.079Z,6.51
2018-01-04T04:12:16.421Z,6.47
2018-01-04T04:14:44.765Z,6.41
2018-01-04T04:17:13.107Z,6.36
2018-01-04T04:19:41.449Z,6.32
2018-01-04T04:22:09.775Z,6.31
2018-01-04T04:24:38.124Z,6.42
2018-01-04T04:27:06.442Z,6.28
2018-01-04T04:29:35.530Z,6.27
2018-01-04T04:32:03.854Z,6.32
2018-01-04T04:34:32.189Z,6.45
2018-01-04T04:37:02.066Z,6.04
2018-01-04T04:39:30.383Z,6.46
2018-01-04T04:41:59.477Z,6.43
2018-01-04T04:44:28.577Z,6.29
2018-01-04T04:46:56.903Z,6.18
2018-01-04T04:49:25.231Z,6.37
2018-01-04T04:51:53.565Z,6.27
2018-01-04T04:54:21.909Z,6.27
2018-01-04T04:56:50.230Z,6.44
2018-01-04T04:59:18.582Z,6.45
2018-01-04T05:01:46.911Z,6.49
2018-01-04T05:04:15.242Z,6.39
2018-01-04T05:06:43.563Z,6.34
2018-01-04T05:09:12.664Z,6.43
2018-01-04T05:11:41.000Z,6.45
2018-01-04T05:14:09.344Z,6.54
2018-01-04T05:16:37.688Z,6.45
2018-01-04T05:19:06.780Z,6.39
2018-01-04T05:21:35.878Z,6.43
2018-01-04T05:24:04.988Z,6.43
2018-01-04T05:26:34.074Z,6.39
2018-01-04T05:29:02.403Z,6.44
2018-01-04T05:31:30.721Z,6.56
2018-01-04T05:33:59.815Z,6.59
2018-01-04T05:36:28.164Z,6.46
2018-01-04T05:38:56.508Z,6.50
2018-01-04T05:41:24.819Z,6.56
2018-01-04T05:43:53.156Z,6.51
2018-01-04T05:46:21.484Z,6.48
2018-01-04T05:48:49.814Z,6.38
2018-01-04T05:51:18.151Z,6.48
2018-01-04T05:53:46.504Z,6.46
2018-01-04T05:56:14.836Z,6.60
2018-01-04T05:58:43.154Z,6.42
2018-01-04T06:01:11.469Z,6.53
2018-01-04T06:03:39.796Z,6.37
2018-01-04T06:06:08.128Z,6.43
2018-01-04T06:08:36.452Z,6.43
2018-01-04T06:11:04.786Z,6.37
2018-01-04T06:13:35.119Z,6.27
2018-01-04T06:16:03.453Z,6.21
2018-01-04T06:18:31.772Z,6.27
2018-01-04T06:21:00.112Z,6.17
2018-01-04T06:23:28.434Z,6.38
2018-01-04T06:25:56.798Z,6.33
2018-01-04T06:28:25.141Z,6.21
2018-01-04T06:30:53.488Z,6.25
2018-01-04T06:33:21.828Z,6.19
2018-01-04T06:35:50.922Z,6.26
2018-01-04T06:38:19.266Z,6.39
2018-01-04T06:40:47.620Z,6.40
2018-01-04T06:43:15.936Z,6.44
2018-01-04T06:45:44.272Z,6.60
2018-01-04T06:48:12.586Z,6.70
2018-01-04T06:50:40.915Z,6.65
2018-01-04T06:53:09.254Z,6.59
2018-01-04T06:55:37.614Z,6.47
2018-01-04T06:58:05.949Z,6.47
2018-01-04T07:00:34.346Z,6.41
2018-01-04T07:03:02.674Z,6.43
2018-01-04T07:05:33.149Z,6.48
2018-01-04T07:08:01.459Z,6.59
2018-01-04T07:10:29.794Z,6.61
2018-01-04T07:12:58.122Z,6.68
2018-01-04T07:15:26.434Z,6.62
2018-01-04T07:17:54.744Z,6.67
2018-01-04T07:20:23.070Z,6.59
2018-01-04T07:22:52.169Z,6.63
2018-01-04T07:25:20.505Z,6.59
2018-01-04T07:27:48.845Z,6.73
2018-01-04T07:30:17.203Z,6.68
2018-01-04T07:32:47.356Z,6.63
2018-01-04T07:35:15.690Z,6.76
2018-01-04T07:37:44.055Z,6.92
2018-01-04T07:40:12.406Z,7.03
2018-01-04T07:42:40.770Z,7.19
2018-01-04T07:45:09.109Z,7.32
2018-01-04T07:47:37.438Z,7.13
2018-01-04T07:50:05.780Z,7.06
2018-01-04T07:52:34.125Z,7.05
2018-01-04T07:55:02.451Z,6.98
2018-01-04T07:57:30.778Z,6.85
2018-01-04T07:59:59.110Z,6.64
2018-01-04T08:02:27.455Z,6.63
2018-01-04T08:04:55.807Z,6.37
2018-01-04T08:07:24.133Z,6.59
2018-01-04T08:09:53.065Z,6.48
2018-01-04T08:12:21.409Z,6.47
2018-01-04T08:14:49.772Z,6.57
2018-01-04T08:17:18.112Z,6.65
2018-01-04T08:19:46.487Z,6.74
2018-01-04T08:22:14.828Z,6.84
2018-01-04T08:24:43.219Z,6.92
2018-01-04T08:27:11.539Z,6.79
2018-01-04T08:29:40.634Z,6.82
2018-01-04T08:32:08.978Z,6.73
2018-01-04T08:34:37.322Z,6.80
2018-01-04T08:37:05.647Z,6.82
2018-01-04T08:39:34.025Z,6.83
2018-01-04T08:42:02.363Z,6.73
2018-01-04T08:44:30.756Z,6.58
2018-01-04T08:46:59.119Z,6.32
2018-01-04T08:49:27.441Z,6.58
2018-01-04T08:51:55.758Z,6.65
2018-01-04T08:54:24.113Z,6.69
2018-01-04T08:56:52.443Z,6.80
2018-01-04T08:59:20.781Z,7.00
2018-01-04T09:01:49.154Z,7.07
2018-01-04T09:04:17.516Z,7.13
2018-01-04T09:06:47.012Z,7.22
2018-01-04T09:09:15.356Z,7.46
2018-01-04T09:11:43.689Z,7.52
2018-01-04T09:14:12.035Z,7.51
2018-01-04T09:16:41.319Z,7.41
2018-01-04T09:19:09.667Z,7.43
2018-01-04T09:21:38.001Z,7.44
2018-01-04T09:24:06.337Z,7.56
2018-01-04T09:26:34.668Z,7.38
2018-01-04T09:29:04.455Z,7.47
2018-01-04T09:31:32.832Z,7.23
2018-01-04T09:34:01.171Z,7.26
2018-01-04T09:36:29.512Z,7.44
2018-01-04T09:38:57.865Z,7.44
2018-01-04T09:41:26.207Z,7.48
2018-01-04T09:43:54.520Z,7.33
2018-01-04T09:46:22.864Z,7.32
2018-01-04T09:48:51.213Z,7.25
2018-01-04T09:51:19.548Z,7.33
2018-01-04T09:53:47.887Z,7.31
2018-01-04T09:56:16.212Z,7.40
2018-01-04T09:58:44.558Z,7.36
2018-01-04T10:01:13.088Z,7.52
2018-01-04T10:03:41.443Z,7.69
2018-01-04T10:06:10.695Z,7.79
2018-01-04T10:08:39.038Z,7.82
2018-01-04T10:11:07.381Z,7.79
2018-01-04T10:13:35.768Z,7.65
2018-01-04T10:16:04.090Z,7.58
2018-01-04T10:18:32.427Z,7.57
2018-01-04T10:21:00.776Z,7.65
2018-01-04T10:23:29.105Z,7.77
2018-01-04T10:25:57.449Z,7.71
2018-01-04T10:28:25.910Z,7.73
2018-01-04T10:30:54.309Z,7.78
2018-01-04T10:33:22.626Z,7.89
2018-01-04T10:35:50.975Z,7.68
2018-01-04T10:38:19.552Z,7.67
2018-01-04T10:40:47.930Z,7.61
2018-01-04T10:43:16.286Z,7.68
2018-01-04T10:45:44.667Z,7.68
2018-01-04T10:48:12.990Z,7.65
2018-01-04T10:50:41.318Z,7.68
2018-01-04T10:53:09.652Z,7.61
2018-01-04T10:55:38.006Z,7.57
2018-01-04T10:58:06.354Z,7.57
2018-01-04T11:00:34.743Z,7.52
2018-01-04T11:03:03.088Z,7.28
2018-01-04T11:05:31.485Z,7.31
2018-01-04T11:07:59.866Z,7.36
2018-01-04T11:10:28.238Z,7.29
2018-01-04T11:12:56.592Z,7.24
2018-01-04T11:15:24.919Z,7.26
2018-01-04T11:17:53.238Z,7.35
2018-01-04T11:20:22.376Z,7.21
2018-01-04T11:22:50.780Z,7.21
2018-01-04T11:25:19.107Z,7.22
2018-01-04T11:27:47.453Z,7.08
2018-01-04T11:30:15.786Z,7.07
2018-01-04T11:32:44.147Z,6.91
2018-01-04T11:35:12.483Z,7.19
2018-01-04T11:37:40.814Z,7.23
2018-01-04T11:40:09.150Z,7.23
2018-01-04T11:42:37.496Z,7.26
2018-01-04T11:45:05.849Z,7.22
2018-01-04T11:47:34.181Z,7.43
2018-01-04T11:50:02.505Z,7.57
2018-01-04T11:52:32.398Z,7.62
2018-01-04T11:55:02.329Z,7.68
2018-01-04T11:57:30.674Z,7.68
2018-01-04T11:59:59.832Z,7.79
2018-01-04T12:02:28.181Z,7.81
2018-01-04T12:04:56.527Z,7.98
2018-01-04T12:07:24.843Z,8.06
2018-01-04T12:09:53.193Z,8.17
2018-01-04T12:12:21.549Z,8.10
2018-01-04T12:14:49.879Z,8.16
2018-01-04T12:17:18.193Z,8.06
2018-01-04T12:19:46.538Z,8.18
2018-01-04T12:22:15.036Z,8.31
2018-01-04T12:24:43.366Z,8.40
2018-01-04T12:27:11.698Z,8.38
2018-01-04T12:29:40.041Z,8.35
2018-01-04T12:32:08.374Z,8.24
2018-01-04T12:34:36.729Z,8.25
2018-01-04T12:37:05.073Z,8.42
2018-01-04T12:39:33.414Z,8.40
2018-01-04T12:42:02.516Z,8.45
2018-01-04T12:44:30.855Z,8.42
2018-01-04T12:46:59.204Z,8.49
2018-01-04T12:49:27.572Z,8.37
2018-01-04T12:51:55.943Z,8.48
2018-01-04T12:54:24.920Z,8.46
2018-01-04T12:56:54.008Z,8.45
2018-01-04T12:59:22.361Z,8.44
2018-01-04T13:01:50.707Z,8.39
2018-01-04T13:04:19.048Z,8.29
2018-01-04T13:06:48.139Z,8.12
2018-01-04T13:09:17.402Z,8.23
2018-01-04T13:11:45.738Z,8.42
2018-01-04T13:14:15.067Z,8.56
2018-01-04T13:16:44.089Z,8.65
2018-01-04T13:19:12.408Z,8.64
2018-01-04T13:21:40.728Z,8.67
2018-01-04T13:24:09.052Z,8.36
2018-01-04T13:26:37.389Z,8.39
2018-01-04T13:29:05.715Z,8.31
2018-01-04T13:31:34.082Z,8.24
2018-01-04T13:34:02.421Z,8.24
2018-01-04T13:36:31.704Z,8.20
2018-01-04T13:39:00.048Z,8.10
2018-01-04T13:41:29.155Z,8.03
2018-01-04T13:43:57.506Z,8.04
2018-01-04T13:46:26.664Z,7.97
2018-01-04T13:48:55.145Z,8.02
2018-01-04T13:51:23.458Z,7.99
2018-01-04T13:53:52.539Z,7.84
2018-01-04T13:56:20.849Z,7.81
2018-01-04T13:58:49.203Z,7.71
2018-01-04T14:01:18.310Z,7.75
2018-01-04T14:03:46.634Z,7.74
2018-01-04T14:06:14.989Z,7.74
2018-01-04T14:08:43.304Z,7.58
2018-01-04T14:11:11.701Z,7.67
2018-01-04T14:13:40.042Z,7.72
2018-01-04T14:16:11.204Z,7.71
2018-01-04T14:18:39.552Z,7.66
2018-01-04T14:21:07.882Z,7.77
2018-01-04T14:23:36.260Z,7.75
2018-01-04T14:26:04.615Z,7.70
2018-01-04T14:28:32.986Z,7.81
2018-01-04T14:31:01.314Z,7.80
2018-01-04T14:33:29.661Z,7.77
2018-01-04T14:35:57.991Z,7.78
2018-01-04T14:38:26.316Z,7.73
2018-01-04T14:40:54.667Z,7.67
2018-01-04T14:43:23.001Z,7.71
2018-01-04T14:45:51.356Z,7.63
2018-01-04T14:48:24.906Z,7.71
2018-01-04T14:50:53.238Z,7.64
2018-01-04T14:53:21.601Z,7.61
2018-01-04T14:55:49.930Z,7.54
2018-01-04T14:58:18.940Z,7.37
2018-01-04T15:00:47.274Z,7.48
2018-01-04T15:03:16.378Z,7.41
2018-01-04T15:05:44.721Z,7.48
2018-01-04T15:08:13.084Z,7.52
2018-01-04T15:10:41.410Z,7.50
2018-01-04T15:13:10.556Z,7.50
2018-01-04T15:15:38.906Z,7.39
2018-01-04T15:18:07.223Z,7.46
2018-01-04T15:20:35.577Z,7.62
2018-01-04T15:23:03.909Z,7.50
2018-01-04T15:25:33.021Z,7.51
2018-01-04T15:28:01.343Z,7.39
2018-01-04T15:30:29.691Z,7.35
2018-01-04T15:32:58.072Z,7.35
2018-01-04T15:35:26.407Z,7.22
2018-01-04T15:37:55.540Z,7.23
2018-01-04T15:40:23.984Z,7.34
2018-01-04T15:42:52.376Z,7.30
2018-01-04T15:45:20.736Z,7.29
2018-01-04T15:47:49.068Z,7.41
2018-01-04T15:50:17.417Z,7.32
2018-01-04T15:52:45.747Z,7.29
2018-01-04T15:55:14.110Z,7.17
2018-01-04T15:57:42.453Z,7.27
2018-01-04T16:00:10.836Z,7.12
2018-01-04T16:02:39.166Z,7.30
2018-01-04T16:05:07.527Z,7.21
2018-01-04T16:07:35.868Z,7.38
2018-01-04T16:10:04.223Z,7.33
2018-01-04T16:12:33.333Z,7.41
2018-01-04T16:15:02.431Z,7.42
2018-01-04T16:17:30.772Z,7.40
2018-01-04T16:19:59.128Z,7.25
2018-01-04T16:22:27.448Z,7.28
2018-01-04T16:24:56.550Z,7.36
2018-01-04T16:27:24.897Z,7.40
2018-01-04T16:29:53.245Z,7.62
2018-01-04T16:32:21.645Z,7.61
2018-01-04T16:34:50.042Z,7.62
2018-01-04T16:37:19.172Z,7.72
2018-01-04T16:39:47.529Z,7.70
2018-01-04T16:42:15.884Z,7.69
2018-01-04T16:44:44.216Z,7.64
2018-01-04T16:47:12.597Z,7.84
2018-01-04T16:49:43.757Z,7.60
2018-01-04T16:52:12.113Z,7.63
2018-01-04T16:54:40.470Z,7.79
2018-01-04T16:57:08.833Z,7.85
2018-01-04T16:59:37.185Z,7.89
2018-01-04T17:02:05.536Z,7.86
2018-01-04T17:04:33.875Z,7.97
2018-01-04T17:07:03.003Z,7.84
2018-01-04T17:09:31.354Z,8.01
2018-01-04T17:11:59.734Z,7.98
2018-01-04T17:14:28.119Z,8.00
2018-01-04T17:16:56.472Z,8.11
2018-01-04T17:19:24.825Z,7.97
2018-01-04T17:21:53.179Z,7.78
2018-01-04T17:24:21.532Z,7.73
2018-01-04T17:26:49.887Z,8.05
2018-01-04T17:29:19.031Z,8.25
2018-01-04T17:31:47.386Z,8.48
2018-01-04T17:34:15.715Z,8.62
2018-01-04T17:36:45.128Z,8.44
2018-01-04T17:39:13.480Z,8.65
2018-01-04T17:41:41.894Z,8.73
2018-01-04T17:44:10.245Z,8.79
2018-01-04T17:46:39.527Z,8.88
2018-01-04T17:49:07.913Z,8.83
2018-01-04T17:51:36.254Z,8.89
2018-01-04T17:54:04.592Z,8.73
2018-01-04T17:56:32.939Z,8.69
2018-01-04T17:59:01.358Z,8.88
2018-01-04T18:01:29.734Z,8.79
2018-01-04T18:03:58.148Z,8.93
2018-01-04T18:06:26.567Z,9.17
2018-01-04T18:08:54.973Z,9.34
2018-01-04T18:11:23.647Z,9.29
2018-01-04T18:13:52.293Z,9.31
2018-01-04T18:16:20.727Z,9.53
2018-01-04T18:18:49.824Z,9.55
2018-01-04T18:21:19.374Z,9.49
2018-01-04T18:23:47.992Z,9.39
2018-01-04T18:26:16.662Z,9.55
2018-01-04T18:28:45.627Z,9.75
2018-01-04T18:31:14.847Z,9.85
2018-01-04T18:33:43.522Z,10.06
2018-01-04T18:36:13.014Z,10.09
2018-01-04T18:38:41.912Z,9.86
2018-01-04T18:41:11.425Z,10.20
2018-01-04T18:43:40.480Z,10.26
2018-01-04T18:46:09.235Z,10.15
2018-01-04T18:48:38.392Z,9.98
2018-01-04T18:51:07.858Z,10.02
2018-01-04T18:53:38.798Z,10.06
2018-01-04T18:56:08.538Z,9.98
2018-01-04T18:58:37.754Z,10.04
2018-01-04T19:01:07.564Z,10.05
2018-01-04T19:03:37.867Z,9.99
2018-01-04T19:06:07.748Z,9.97
2018-01-04T19:08:37.582Z,10.13
2018-01-04T19:11:07.425Z,9.85
2018-01-04T19:13:37.984Z,9.91
2018-01-04T19:16:07.751Z,10.09
2018-01-04T19:18:37.585Z,10.11
2018-01-04T19:21:07.641Z,10.13
2018-01-04T19:23:37.486Z,9.98
2018-01-04T19:26:07.420Z,10.25
2018-01-04T19:28:37.293Z,10.07
2018-01-04T19:31:07.299Z,10.14
2018-01-04T19:33:37.433Z,10.02
2018-01-04T19:36:08.550Z,10.18
2018-01-04T19:38:38.434Z,10.11
2018-01-04T19:41:08.257Z,10.19
2018-01-04T19:43:38.409Z,10.14
2018-01-04T19:46:08.349Z,10.16
2018-01-04T19:48:38.223Z,9.91
2018-01-04T19:51:08.243Z,10.06
2018-01-04T19:53:38.469Z,9.87
2018-01-04T19:56:08.335Z,9.86
2018-01-04T19:58:38.228Z,9.75
2018-01-04T20:01:08.259Z,9.77
2018-01-04T20:03:39.024Z,9.66
2018-01-04T20:06:09.796Z,9.54
2018-01-04T20:08:39.759Z,9.79
2018-01-04T20:11:10.407Z,9.77
2018-01-04T20:13:41.161Z,9.67
2018-01-04T20:16:11.036Z,9.73
2018-01-04T20:18:40.952Z,9.61
2018-01-04T20:21:11.798Z,9.78
2018-01-04T20:23:42.564Z,9.74
2018-01-04T20:26:12.529Z,9.65
2018-01-04T20:28:42.493Z,9.68
2018-01-04T20:31:13.162Z,9.66
2018-01-04T20:33:43.045Z,9.90
2018-01-04T20:36:12.989Z,10.04
2018-01-04T20:38:43.029Z,9.83
2018-01-04T20:41:12.981Z,10.03
2018-01-04T20:43:42.967Z,9.86
2018-01-04T20:46:13.652Z,9.91
2018-01-04T20:48:47.326Z,10.03
2018-01-04T20:51:17.167Z,10.12
2018-01-04T20:53:47.110Z,10.10
2018-01-04T20:56:17.055Z,10.06
2018-01-04T20:58:46.989Z,10.27
2018-01-04T21:01:17.090Z,9.94
2018-01-04T21:03:47.046Z,10.10
2018-01-04T21:06:17.019Z,10.23
2018-01-04T21:08:47.142Z,10.13
2018-01-04T21:11:17.607Z,9.94
2018-01-04T21:13:47.626Z,9.78
2018-01-04T21:16:18.360Z,9.66
2018-01-04T21:18:48.927Z,9.57
2018-01-04T21:21:18.863Z,9.52
2018-01-04T21:23:48.914Z,9.55
2018-01-04T21:26:18.821Z,9.41
2018-01-04T21:28:48.957Z,9.48
2018-01-04T21:31:19.073Z,9.52
2018-01-04T21:33:49.180Z,9.58
2018-01-04T21:36:19.143Z,9.61
2018-01-04T21:38:49.780Z,9.62
2018-01-04T21:41:20.258Z,9.58
2018-01-04T21:43:50.190Z,9.53
2018-01-04T21:46:20.156Z,9.49
2018-01-04T21:48:50.038Z,9.61
2018-01-04T21:51:20.637Z,9.48
2018-01-04T21:53:50.551Z,9.55
2018-01-04T21:56:20.781Z,9.62
2018-01-04T21:58:50.664Z,9.65
2018-01-04T22:01:20.595Z,9.76
2018-01-04T22:03:51.458Z,9.70
2018-01-04T22:06:21.349Z,9.51
2018-01-04T22:08:51.267Z,9.65
2018-01-04T22:11:21.151Z,9.50
2018-01-04T22:13:52.162Z,9.67
2018-01-04T22:16:23.139Z,9.40
2018-01-04T22:18:53.002Z,9.43
2018-01-04T22:21:22.846Z,9.31
2018-01-04T22:23:52.708Z,9.28
2018-01-04T22:26:22.555Z,9.48
2018-01-04T22:28:52.464Z,9.27
2018-01-04T22:31:22.343Z,9.27
2018-01-04T22:33:52.970Z,9.17
2018-01-04T22:36:22.834Z,9.13
2018-01-04T22:38:52.669Z,8.99
2018-01-04T22:41:22.530Z,9.07
2018-01-04T22:43:52.179Z,9.15
2018-01-04T22:46:21.814Z,9.21
2018-01-04T22:48:51.328Z,9.38
2018-01-04T22:51:21.074Z,9.58
2018-01-04T22:53:50.320Z,9.38
2018-01-04T22:56:19.935Z,9.26
2018-01-04T22:58:49.056Z,9.57
2018-01-04T23:01:17.962Z,9.40
2018-01-04T23:03:46.616Z,9.40
2018-01-04T23:06:14.993Z,9.49
2018-01-04T23:08:43.351Z,9.51
2018-01-04T23:11:11.737Z,9.53
2018-01-04T23:13:40.063Z,9.41
2018-01-04T23:16:09.167Z,9.47
2018-01-04T23:18:37.507Z,9.42
2018-01-04T23:21:05.842Z,9.32
2018-01-04T23:23:34.187Z,9.28
2018-01-04T23:26:03.294Z,9.03
2018-01-04T23:28:31.618Z,9.01
2018-01-04T23:30:59.946Z,8.72
2018-01-04T23:33:28.285Z,8.49
2018-01-04T23:35:56.641Z,8.59
2018-01-04T23:38:24.981Z,8.64
2018-01-04T23:40:53.328Z,8.74
2018-01-04T23:43:21.669Z,8.69
2018-01-04T23:45:50.003Z,8.68
2018-01-04T23:48:18.344Z,8.70
2018-01-04T23:50:46.691Z,8.78
2018-01-04T23:53:15.029Z,8.50
2018-01-04T23:55:44.197Z,8.64
2018-01-04T23:58:12.543Z,8.53
